sensor_id;sensor_type;location;lat;lon;timestamp;P1;durP1;ratioP1;P2;durP2;ratioP2
11604;SDS011;5858;43.076;25.626;2023-03-14T03:22:50;9.10;;;4.00;;
11604;SDS011;5858;43.076;25.626;2023-03-14T03:53:04;8.70;;;3.40;;
11604;SDS011;5858;43.076;25.626;2023-03-14T03:55:45;14.07;;;4.20;;
11604;SDS011;5858;43.076;25.626;2023-03-14T03:58:51;8.27;;;3.23;;
11604;SDS011;5858;43.076;25.626;2023-03-14T04:01:44;6.87;;;3.17;;
11604;SDS011;5858;43.076;25.626;2023-03-14T04:04:39;10.90;;;3.67;;
11604;SDS011;5858;43.076;25.626;2023-03-14T04:07:19;10.73;;;2.97;;
11604;SDS011;5858;43.076;25.626;2023-03-14T04:09:55;8.10;;;3.63;;
11604;SDS011;5858;43.076;25.626;2023-03-14T04:12:34;5.57;;;3.40;;
11604;SDS011;5858;43.076;25.626;2023-03-14T04:15:05;14.23;;;3.80;;
11604;SDS011;5858;43.076;25.626;2023-03-14T04:18:00;7.63;;;3.53;;
11604;SDS011;5858;43.076;25.626;2023-03-14T04:20:33;13.37;;;3.27;;
11604;SDS011;5858;43.076;25.626;2023-03-14T04:23:01;9.07;;;2.87;;
11604;SDS011;5858;43.076;25.626;2023-03-14T04:25:32;6.83;;;3.20;;
11604;SDS011;5858;43.076;25.626;2023-03-14T05:14:30;26.13;;;6.20;;
11604;SDS011;5858;43.076;25.626;2023-03-14T05:31:08;23.37;;;6.87;;
11604;SDS011;5858;43.076;25.626;2023-03-14T05:33:48;20.97;;;6.60;;
11604;SDS011;5858;43.076;25.626;2023-03-14T05:36:24;19.33;;;5.70;;
11604;SDS011;5858;43.076;25.626;2023-03-14T05:45:03;8.10;;;3.70;;
11604;SDS011;5858;43.076;25.626;2023-03-14T05:47:34;11.17;;;4.00;;
11604;SDS011;5858;43.076;25.626;2023-03-14T05:50:01;10.33;;;4.67;;
11604;SDS011;5858;43.076;25.626;2023-03-14T05:52:56;10.07;;;5.20;;
11604;SDS011;5858;43.076;25.626;2023-03-14T05:55:55;9.80;;;4.07;;
11604;SDS011;5858;43.076;25.626;2023-03-14T05:58:34;13.47;;;5.03;;
11604;SDS011;5858;43.076;25.626;2023-03-14T06:04:28;9.50;;;4.60;;
11604;SDS011;5858;43.076;25.626;2023-03-14T06:06:58;11.67;;;4.47;;
11604;SDS011;5858;43.076;25.626;2023-03-14T06:09:33;11.53;;;5.63;;
11604;SDS011;5858;43.076;25.626;2023-03-14T06:12:03;12.30;;;5.53;;
11604;SDS011;5858;43.076;25.626;2023-03-14T06:14:32;5.60;;;3.67;;
11604;SDS011;5858;43.076;25.626;2023-03-14T06:16:59;15.70;;;4.43;;
11604;SDS011;5858;43.076;25.626;2023-03-14T06:19:29;9.60;;;4.07;;
11604;SDS011;5858;43.076;25.626;2023-03-14T06:22:41;8.87;;;3.20;;
11604;SDS011;5858;43.076;25.626;2023-03-14T06:25:08;9.87;;;3.40;;
11604;SDS011;5858;43.076;25.626;2023-03-14T06:27:35;10.27;;;2.90;;
11604;SDS011;5858;43.076;25.626;2023-03-14T06:30:07;14.60;;;3.77;;
11604;SDS011;5858;43.076;25.626;2023-03-14T06:33:07;7.63;;;4.03;;
11604;SDS011;5858;43.076;25.626;2023-03-14T06:35:36;14.70;;;4.90;;
11604;SDS011;5858;43.076;25.626;2023-03-14T06:38:04;10.77;;;3.50;;
11604;SDS011;5858;43.076;25.626;2023-03-14T06:40:36;15.73;;;5.60;;
11604;SDS011;5858;43.076;25.626;2023-03-14T06:43:09;9.70;;;4.27;;
11604;SDS011;5858;43.076;25.626;2023-03-14T06:45:39;7.07;;;3.37;;
11604;SDS011;5858;43.076;25.626;2023-03-14T06:48:08;7.63;;;2.43;;
11604;SDS011;5858;43.076;25.626;2023-03-14T06:53:31;11.97;;;2.07;;
11604;SDS011;5858;43.076;25.626;2023-03-14T06:56:01;16.07;;;3.63;;
11604;SDS011;5858;43.076;25.626;2023-03-14T06:58:34;8.33;;;2.50;;
11604;SDS011;5858;43.076;25.626;2023-03-14T07:01:01;10.80;;;3.10;;
11604;SDS011;5858;43.076;25.626;2023-03-14T07:03:31;8.50;;;2.97;;
11604;SDS011;5858;43.076;25.626;2023-03-14T07:06:00;6.07;;;3.07;;
11604;SDS011;5858;43.076;25.626;2023-03-14T07:08:27;6.27;;;3.00;;
11604;SDS011;5858;43.076;25.626;2023-03-14T07:10:55;4.23;;;2.53;;
11604;SDS011;5858;43.076;25.626;2023-03-14T07:13:22;3.93;;;2.10;;
11604;SDS011;5858;43.076;25.626;2023-03-14T07:15:50;8.10;;;2.70;;
11604;SDS011;5858;43.076;25.626;2023-03-14T07:18:17;5.10;;;3.23;;
11604;SDS011;5858;43.076;25.626;2023-03-14T07:20:44;5.80;;;3.43;;
11604;SDS011;5858;43.076;25.626;2023-03-14T07:23:16;5.97;;;3.80;;
11604;SDS011;5858;43.076;25.626;2023-03-14T07:25:51;6.43;;;2.33;;
11604;SDS011;5858;43.076;25.626;2023-03-14T07:28:18;2.70;;;2.00;;
11604;SDS011;5858;43.076;25.626;2023-03-14T07:30:46;4.83;;;2.57;;
11604;SDS011;5858;43.076;25.626;2023-03-14T07:33:13;5.00;;;1.83;;
11604;SDS011;5858;43.076;25.626;2023-03-14T07:35:40;1.40;;;1.20;;
11604;SDS011;5858;43.076;25.626;2023-03-14T07:38:07;2.03;;;1.53;;
11604;SDS011;5858;43.076;25.626;2023-03-14T07:40:36;3.50;;;2.17;;
11604;SDS011;5858;43.076;25.626;2023-03-14T07:43:05;1.60;;;1.10;;
11604;SDS011;5858;43.076;25.626;2023-03-14T07:45:34;3.70;;;1.80;;
11604;SDS011;5858;43.076;25.626;2023-03-14T07:48:02;3.50;;;2.20;;
11604;SDS011;5858;43.076;25.626;2023-03-14T07:50:29;3.53;;;3.17;;
11604;SDS011;5858;43.076;25.626;2023-03-14T07:52:58;2.50;;;1.50;;
11604;SDS011;5858;43.076;25.626;2023-03-14T07:55:25;2.50;;;1.90;;
11604;SDS011;5858;43.076;25.626;2023-03-14T07:57:54;6.37;;;1.63;;
11604;SDS011;5858;43.076;25.626;2023-03-14T08:00:21;2.00;;;1.33;;
11604;SDS011;5858;43.076;25.626;2023-03-14T08:02:52;2.17;;;1.57;;
11604;SDS011;5858;43.076;25.626;2023-03-14T08:05:19;2.60;;;1.20;;
11604;SDS011;5858;43.076;25.626;2023-03-14T08:07:46;1.60;;;1.20;;
11604;SDS011;5858;43.076;25.626;2023-03-14T08:10:13;2.47;;;1.33;;
11604;SDS011;5858;43.076;25.626;2023-03-14T08:12:50;1.17;;;1.07;;
11604;SDS011;5858;43.076;25.626;2023-03-14T08:15:19;1.60;;;1.50;;
11604;SDS011;5858;43.076;25.626;2023-03-14T08:17:46;1.70;;;1.20;;
11604;SDS011;5858;43.076;25.626;2023-03-14T08:20:16;1.50;;;1.10;;
11604;SDS011;5858;43.076;25.626;2023-03-14T08:22:45;1.50;;;1.10;;
11604;SDS011;5858;43.076;25.626;2023-03-14T08:25:12;1.53;;;1.10;;
11604;SDS011;5858;43.076;25.626;2023-03-14T08:27:40;2.73;;;1.23;;
11604;SDS011;5858;43.076;25.626;2023-03-14T08:30:11;2.60;;;1.03;;
11604;SDS011;5858;43.076;25.626;2023-03-14T08:32:41;2.83;;;1.10;;
11604;SDS011;5858;43.076;25.626;2023-03-14T08:35:16;2.77;;;1.10;;
11604;SDS011;5858;43.076;25.626;2023-03-14T08:37:43;2.80;;;1.27;;
11604;SDS011;5858;43.076;25.626;2023-03-14T08:40:11;2.23;;;1.10;;
11604;SDS011;5858;43.076;25.626;2023-03-14T08:42:38;1.70;;;1.30;;
11604;SDS011;5858;43.076;25.626;2023-03-14T08:45:07;2.93;;;0.90;;
11604;SDS011;5858;43.076;25.626;2023-03-14T08:47:49;3.07;;;1.40;;
11604;SDS011;5858;43.076;25.626;2023-03-14T08:50:16;2.17;;;1.90;;
11604;SDS011;5858;43.076;25.626;2023-03-14T08:52:43;5.43;;;1.70;;
11604;SDS011;5858;43.076;25.626;2023-03-14T08:55:16;1.30;;;1.10;;
11604;SDS011;5858;43.076;25.626;2023-03-14T08:57:43;3.63;;;1.03;;
11604;SDS011;5858;43.076;25.626;2023-03-14T09:00:13;1.17;;;1.00;;
11604;SDS011;5858;43.076;25.626;2023-03-14T09:02:43;3.20;;;1.20;;
11604;SDS011;5858;43.076;25.626;2023-03-14T09:05:12;4.57;;;2.20;;
11604;SDS011;5858;43.076;25.626;2023-03-14T09:07:42;2.90;;;1.50;;
11604;SDS011;5858;43.076;25.626;2023-03-14T09:10:10;2.20;;;1.30;;
11604;SDS011;5858;43.076;25.626;2023-03-14T09:12:37;1.10;;;1.00;;
11604;SDS011;5858;43.076;25.626;2023-03-14T09:15:05;1.77;;;1.00;;
11604;SDS011;5858;43.076;25.626;2023-03-14T09:17:32;2.30;;;1.10;;
11604;SDS011;5858;43.076;25.626;2023-03-14T09:20:00;1.30;;;1.10;;
11604;SDS011;5858;43.076;25.626;2023-03-14T09:22:32;2.67;;;0.97;;
11604;SDS011;5858;43.076;25.626;2023-03-14T09:25:07;1.87;;;1.20;;
11604;SDS011;5858;43.076;25.626;2023-03-14T09:27:35;1.10;;;1.00;;
11604;SDS011;5858;43.076;25.626;2023-03-14T09:30:07;1.83;;;1.40;;
11604;SDS011;5858;43.076;25.626;2023-03-14T09:32:35;3.63;;;1.40;;
11604;SDS011;5858;43.076;25.626;2023-03-14T09:35:03;1.00;;;0.83;;
11604;SDS011;5858;43.076;25.626;2023-03-14T09:37:32;0.80;;;0.77;;
11604;SDS011;5858;43.076;25.626;2023-03-14T09:40:00;5.68;;;1.13;;
11604;SDS011;5858;43.076;25.626;2023-03-14T09:42:59;1.20;;;1.05;;
11604;SDS011;5858;43.076;25.626;2023-03-14T09:45:44;7.32;;;3.65;;
11604;SDS011;5858;43.076;25.626;2023-03-14T09:48:15;2.08;;;1.30;;
11604;SDS011;5858;43.076;25.626;2023-03-14T09:50:46;6.18;;;1.77;;
11604;SDS011;5858;43.076;25.626;2023-03-14T09:53:19;1.48;;;1.35;;
11604;SDS011;5858;43.076;25.626;2023-03-14T09:55:50;8.57;;;1.55;;
11604;SDS011;5858;43.076;25.626;2023-03-14T09:58:51;2.63;;;1.60;;
11604;SDS011;5858;43.076;25.626;2023-03-14T10:01:22;3.83;;;0.95;;
11604;SDS011;5858;43.076;25.626;2023-03-14T10:03:53;1.25;;;1.15;;
11604;SDS011;5858;43.076;25.626;2023-03-14T10:06:22;3.28;;;0.98;;
11604;SDS011;5858;43.076;25.626;2023-03-14T10:08:56;1.10;;;1.00;;
11604;SDS011;5858;43.076;25.626;2023-03-14T10:11:24;2.25;;;0.80;;
11604;SDS011;5858;43.076;25.626;2023-03-14T10:14:02;1.48;;;1.02;;
11604;SDS011;5858;43.076;25.626;2023-03-14T10:16:32;2.10;;;1.02;;
11604;SDS011;5858;43.076;25.626;2023-03-14T10:19:03;1.35;;;0.90;;
11604;SDS011;5858;43.076;25.626;2023-03-14T10:21:35;1.15;;;0.98;;
11604;SDS011;5858;43.076;25.626;2023-03-14T10:26:58;0.60;;;0.60;;
11604;SDS011;5858;43.076;25.626;2023-03-14T10:29:28;1.10;;;1.00;;
11604;SDS011;5858;43.076;25.626;2023-03-14T10:31:58;3.08;;;1.00;;
11604;SDS011;5858;43.076;25.626;2023-03-14T10:34:28;1.00;;;0.88;;
11604;SDS011;5858;43.076;25.626;2023-03-14T10:36:57;2.35;;;1.08;;
11604;SDS011;5858;43.076;25.626;2023-03-14T10:39:32;3.60;;;2.42;;
11604;SDS011;5858;43.076;25.626;2023-03-14T10:42:31;4.22;;;2.40;;
11604;SDS011;5858;43.076;25.626;2023-03-14T10:45:00;1.80;;;1.17;;
11604;SDS011;5858;43.076;25.626;2023-03-14T10:47:28;3.55;;;1.08;;
11604;SDS011;5858;43.076;25.626;2023-03-14T10:49:58;0.88;;;0.80;;
11604;SDS011;5858;43.076;25.626;2023-03-14T10:52:49;1.10;;;1.00;;
11604;SDS011;5858;43.076;25.626;2023-03-14T10:55:19;1.73;;;0.70;;
11604;SDS011;5858;43.076;25.626;2023-03-14T10:57:50;3.63;;;0.90;;
11604;SDS011;5858;43.076;25.626;2023-03-14T11:00:18;0.93;;;0.82;;
11604;SDS011;5858;43.076;25.626;2023-03-14T11:13:15;3.30;;;0.98;;
11604;SDS011;5858;43.076;25.626;2023-03-14T11:22:48;2.92;;;1.00;;
11604;SDS011;5858;43.076;25.626;2023-03-14T11:25:40;1.25;;;0.77;;
11604;SDS011;5858;43.076;25.626;2023-03-14T11:28:33;1.67;;;0.98;;
11604;SDS011;5858;43.076;25.626;2023-03-14T11:31:05;1.45;;;0.90;;
11604;SDS011;5858;43.076;25.626;2023-03-14T11:33:49;3.60;;;1.17;;
11604;SDS011;5858;43.076;25.626;2023-03-14T11:40:05;3.33;;;1.10;;
11604;SDS011;5858;43.076;25.626;2023-03-14T11:42:46;2.25;;;0.90;;
11604;SDS011;5858;43.076;25.626;2023-03-14T11:45:43;3.70;;;1.15;;
11604;SDS011;5858;43.076;25.626;2023-03-14T11:48:24;0.75;;;0.63;;
11604;SDS011;5858;43.076;25.626;2023-03-14T11:51:19;2.22;;;1.85;;
11604;SDS011;5858;43.076;25.626;2023-03-14T11:54:37;1.67;;;0.80;;
11604;SDS011;5858;43.076;25.626;2023-03-14T11:57:27;1.85;;;1.45;;
11604;SDS011;5858;43.076;25.626;2023-03-14T12:00:24;1.80;;;0.93;;
11604;SDS011;5858;43.076;25.626;2023-03-14T12:06:35;1.40;;;0.93;;
11604;SDS011;5858;43.076;25.626;2023-03-14T12:09:22;2.60;;;1.35;;
11604;SDS011;5858;43.076;25.626;2023-03-14T12:11:57;9.80;;;1.85;;
11604;SDS011;5858;43.076;25.626;2023-03-14T12:15:03;4.13;;;1.42;;
11604;SDS011;5858;43.076;25.626;2023-03-14T12:17:34;2.10;;;1.17;;
11604;SDS011;5858;43.076;25.626;2023-03-14T12:20:17;3.03;;;1.20;;
11604;SDS011;5858;43.076;25.626;2023-03-14T12:22:50;3.80;;;0.88;;
11604;SDS011;5858;43.076;25.626;2023-03-14T12:25:23;1.33;;;0.93;;
11604;SDS011;5858;43.076;25.626;2023-03-14T12:30:47;1.00;;;0.90;;
11604;SDS011;5858;43.076;25.626;2023-03-14T12:33:31;1.95;;;0.88;;
11604;SDS011;5858;43.076;25.626;2023-03-14T12:36:12;0.80;;;0.80;;
11604;SDS011;5858;43.076;25.626;2023-03-14T12:39:19;2.30;;;1.40;;
11604;SDS011;5858;43.076;25.626;2023-03-14T12:42:02;1.85;;;1.00;;
11604;SDS011;5858;43.076;25.626;2023-03-14T12:44:40;2.20;;;1.05;;
11604;SDS011;5858;43.076;25.626;2023-03-14T12:50:13;0.95;;;0.93;;
11604;SDS011;5858;43.076;25.626;2023-03-14T12:52:48;2.03;;;1.40;;
11604;SDS011;5858;43.076;25.626;2023-03-14T12:55:39;1.80;;;1.40;;
11604;SDS011;5858;43.076;25.626;2023-03-14T12:58:15;1.67;;;1.25;;
11604;SDS011;5858;43.076;25.626;2023-03-14T13:00:54;1.40;;;1.27;;
11604;SDS011;5858;43.076;25.626;2023-03-14T13:03:47;2.13;;;1.08;;
11604;SDS011;5858;43.076;25.626;2023-03-14T13:25:30;1.50;;;1.13;;
11604;SDS011;5858;43.076;25.626;2023-03-14T13:28:11;2.05;;;1.42;;
11604;SDS011;5858;43.076;25.626;2023-03-14T13:30:45;3.22;;;1.60;;
11604;SDS011;5858;43.076;25.626;2023-03-14T13:33:19;1.95;;;1.25;;
11604;SDS011;5858;43.076;25.626;2023-03-14T13:46:12;2.58;;;1.88;;
11604;SDS011;5858;43.076;25.626;2023-03-14T13:48:55;6.78;;;1.20;;
11604;SDS011;5858;43.076;25.626;2023-03-14T13:54:59;4.63;;;1.92;;
11604;SDS011;5858;43.076;25.626;2023-03-14T13:57:42;3.22;;;2.00;;
11604;SDS011;5858;43.076;25.626;2023-03-14T14:00:17;5.72;;;1.75;;
11604;SDS011;5858;43.076;25.626;2023-03-14T14:02:54;2.55;;;1.80;;
11604;SDS011;5858;43.076;25.626;2023-03-14T14:06:52;3.47;;;2.28;;
11604;SDS011;5858;43.076;25.626;2023-03-14T14:08:40;4.55;;;1.80;;
11604;SDS011;5858;43.076;25.626;2023-03-14T14:11:32;5.88;;;1.70;;
11604;SDS011;5858;43.076;25.626;2023-03-14T14:14:20;3.88;;;1.40;;
11604;SDS011;5858;43.076;25.626;2023-03-14T14:17:03;7.20;;;1.70;;
11604;SDS011;5858;43.076;25.626;2023-03-14T14:19:49;4.95;;;1.40;;
11604;SDS011;5858;43.076;25.626;2023-03-14T14:22:48;3.25;;;1.85;;
11604;SDS011;5858;43.076;25.626;2023-03-14T14:25:41;2.67;;;1.40;;
11604;SDS011;5858;43.076;25.626;2023-03-14T14:28:23;4.10;;;1.52;;
11604;SDS011;5858;43.076;25.626;2023-03-14T14:38:16;3.50;;;1.48;;
11604;SDS011;5858;43.076;25.626;2023-03-14T14:40:59;2.63;;;1.45;;
11604;SDS011;5858;43.076;25.626;2023-03-14T14:44:10;2.55;;;1.40;;
11604;SDS011;5858;43.076;25.626;2023-03-14T14:47:12;1.65;;;1.30;;
11604;SDS011;5858;43.076;25.626;2023-03-14T14:56:40;2.65;;;1.80;;
11604;SDS011;5858;43.076;25.626;2023-03-14T14:59:19;3.03;;;1.90;;
11604;SDS011;5858;43.076;25.626;2023-03-14T15:02:00;4.50;;;1.40;;
11604;SDS011;5858;43.076;25.626;2023-03-14T15:04:52;3.83;;;1.20;;
11604;SDS011;5858;43.076;25.626;2023-03-14T15:07:31;3.20;;;1.20;;
11604;SDS011;5858;43.076;25.626;2023-03-14T15:10:20;1.73;;;1.58;;
11604;SDS011;5858;43.076;25.626;2023-03-14T15:13:07;5.25;;;1.60;;
11604;SDS011;5858;43.076;25.626;2023-03-14T15:15:34;4.15;;;1.77;;
11604;SDS011;5858;43.076;25.626;2023-03-14T15:18:10;3.17;;;1.50;;
11604;SDS011;5858;43.076;25.626;2023-03-14T15:20:43;2.70;;;1.43;;
11604;SDS011;5858;43.076;25.626;2023-03-14T15:23:17;1.77;;;1.40;;
11604;SDS011;5858;43.076;25.626;2023-03-14T15:25:49;3.80;;;1.30;;
11604;SDS011;5858;43.076;25.626;2023-03-14T15:28:22;4.07;;;1.63;;
11604;SDS011;5858;43.076;25.626;2023-03-14T15:30:53;3.20;;;1.80;;
11604;SDS011;5858;43.076;25.626;2023-03-14T15:33:28;4.80;;;1.47;;
11604;SDS011;5858;43.076;25.626;2023-03-14T15:35:59;4.50;;;1.73;;
11604;SDS011;5858;43.076;25.626;2023-03-14T15:38:29;2.70;;;1.40;;
11604;SDS011;5858;43.076;25.626;2023-03-14T15:40:57;2.00;;;1.07;;
11604;SDS011;5858;43.076;25.626;2023-03-14T15:43:26;4.53;;;1.40;;
11604;SDS011;5858;43.076;25.626;2023-03-14T15:45:54;1.80;;;1.40;;
11604;SDS011;5858;43.076;25.626;2023-03-14T15:48:23;3.60;;;1.30;;
11604;SDS011;5858;43.076;25.626;2023-03-14T15:50:51;2.60;;;1.50;;
11604;SDS011;5858;43.076;25.626;2023-03-14T15:53:18;4.20;;;1.70;;
11604;SDS011;5858;43.076;25.626;2023-03-14T15:55:45;1.40;;;1.30;;
11604;SDS011;5858;43.076;25.626;2023-03-14T15:58:15;2.00;;;1.33;;
11604;SDS011;5858;43.076;25.626;2023-03-14T16:00:46;3.93;;;1.30;;
11604;SDS011;5858;43.076;25.626;2023-03-14T16:03:14;3.90;;;1.50;;
11604;SDS011;5858;43.076;25.626;2023-03-14T16:05:44;2.27;;;1.30;;
11604;SDS011;5858;43.076;25.626;2023-03-14T16:08:27;3.23;;;1.10;;
11604;SDS011;5858;43.076;25.626;2023-03-14T16:10:58;2.40;;;1.20;;
11604;SDS011;5858;43.076;25.626;2023-03-14T16:13:27;2.60;;;1.00;;
11604;SDS011;5858;43.076;25.626;2023-03-14T16:15:59;3.23;;;1.50;;
11604;SDS011;5858;43.076;25.626;2023-03-14T16:18:29;3.50;;;1.20;;
11604;SDS011;5858;43.076;25.626;2023-03-14T16:20:59;5.20;;;2.10;;
11604;SDS011;5858;43.076;25.626;2023-03-14T16:23:28;2.30;;;1.30;;
11604;SDS011;5858;43.076;25.626;2023-03-14T16:25:55;3.37;;;1.50;;
11604;SDS011;5858;43.076;25.626;2023-03-14T16:28:23;2.90;;;1.90;;
11604;SDS011;5858;43.076;25.626;2023-03-14T16:30:51;1.80;;;1.30;;
11604;SDS011;5858;43.076;25.626;2023-03-14T16:33:26;2.40;;;1.07;;
11604;SDS011;5858;43.076;25.626;2023-03-14T16:35:57;5.07;;;1.50;;
11604;SDS011;5858;43.076;25.626;2023-03-14T16:38:30;2.80;;;2.33;;
11604;SDS011;5858;43.076;25.626;2023-03-14T16:40:58;2.87;;;1.73;;
11604;SDS011;5858;43.076;25.626;2023-03-14T16:43:30;3.23;;;2.40;;
11604;SDS011;5858;43.076;25.626;2023-03-14T16:46:01;3.23;;;1.70;;
11604;SDS011;5858;43.076;25.626;2023-03-14T16:48:31;3.47;;;1.20;;
11604;SDS011;5858;43.076;25.626;2023-03-14T16:51:01;2.63;;;1.30;;
11604;SDS011;5858;43.076;25.626;2023-03-14T16:53:29;3.50;;;1.70;;
11604;SDS011;5858;43.076;25.626;2023-03-14T16:55:57;7.67;;;2.10;;
11604;SDS011;5858;43.076;25.626;2023-03-14T16:58:25;2.93;;;1.70;;
11604;SDS011;5858;43.076;25.626;2023-03-14T17:01:14;3.60;;;1.87;;
11604;SDS011;5858;43.076;25.626;2023-03-14T17:03:48;4.70;;;2.50;;
11604;SDS011;5858;43.076;25.626;2023-03-14T17:06:19;2.80;;;2.10;;
11604;SDS011;5858;43.076;25.626;2023-03-14T17:08:48;4.87;;;2.60;;
11604;SDS011;5858;43.076;25.626;2023-03-14T17:11:15;2.87;;;2.17;;
11604;SDS011;5858;43.076;25.626;2023-03-14T17:13:43;4.83;;;1.83;;
11604;SDS011;5858;43.076;25.626;2023-03-14T17:16:11;5.03;;;2.10;;
11604;SDS011;5858;43.076;25.626;2023-03-14T17:18:40;4.67;;;3.07;;
11604;SDS011;5858;43.076;25.626;2023-03-14T17:21:13;4.37;;;2.20;;
11604;SDS011;5858;43.076;25.626;2023-03-14T17:23:43;3.20;;;1.70;;
11604;SDS011;5858;43.076;25.626;2023-03-14T17:26:10;2.00;;;1.20;;
11604;SDS011;5858;43.076;25.626;2023-03-14T17:28:42;2.30;;;1.33;;
11604;SDS011;5858;43.076;25.626;2023-03-14T17:32:00;2.10;;;1.07;;
11604;SDS011;5858;43.076;25.626;2023-03-14T17:34:25;2.63;;;1.03;;
11604;SDS011;5858;43.076;25.626;2023-03-14T17:36:55;4.03;;;1.60;;
11604;SDS011;5858;43.076;25.626;2023-03-14T17:39:25;2.43;;;1.50;;
11604;SDS011;5858;43.076;25.626;2023-03-14T17:42:03;0.93;;;0.90;;
11604;SDS011;5858;43.076;25.626;2023-03-14T17:44:31;1.60;;;1.17;;
11604;SDS011;5858;43.076;25.626;2023-03-14T17:47:02;1.03;;;0.87;;
11604;SDS011;5858;43.076;25.626;2023-03-14T17:49:29;2.20;;;1.00;;
11604;SDS011;5858;43.076;25.626;2023-03-14T17:52:01;2.77;;;1.43;;
11604;SDS011;5858;43.076;25.626;2023-03-14T17:54:28;5.30;;;1.40;;
11604;SDS011;5858;43.076;25.626;2023-03-14T17:56:55;2.40;;;1.30;;
11604;SDS011;5858;43.076;25.626;2023-03-14T17:59:22;4.57;;;2.30;;
11604;SDS011;5858;43.076;25.626;2023-03-14T18:01:53;2.13;;;1.57;;
11604;SDS011;5858;43.076;25.626;2023-03-14T18:04:22;2.60;;;1.20;;
11604;SDS011;5858;43.076;25.626;2023-03-14T18:06:49;3.07;;;1.90;;
11604;SDS011;5858;43.076;25.626;2023-03-14T18:12:15;2.90;;;1.20;;
11604;SDS011;5858;43.076;25.626;2023-03-14T18:14:53;2.10;;;1.80;;
11604;SDS011;5858;43.076;25.626;2023-03-14T18:17:26;1.77;;;1.30;;
11604;SDS011;5858;43.076;25.626;2023-03-14T18:19:55;1.57;;;1.27;;
11604;SDS011;5858;43.076;25.626;2023-03-14T18:22:25;2.37;;;1.50;;
11604;SDS011;5858;43.076;25.626;2023-03-14T18:24:57;6.00;;;2.03;;
11604;SDS011;5858;43.076;25.626;2023-03-14T18:27:26;3.40;;;1.93;;
11604;SDS011;5858;43.076;25.626;2023-03-14T18:30:11;3.13;;;2.33;;
11604;SDS011;5858;43.076;25.626;2023-03-14T18:32:40;3.67;;;1.80;;
11604;SDS011;5858;43.076;25.626;2023-03-14T18:35:15;2.87;;;1.90;;
11604;SDS011;5858;43.076;25.626;2023-03-14T18:37:49;2.37;;;1.57;;
11604;SDS011;5858;43.076;25.626;2023-03-14T18:54:39;2.97;;;2.00;;
11604;SDS011;5858;43.076;25.626;2023-03-14T18:57:36;5.50;;;1.87;;
11604;SDS011;5858;43.076;25.626;2023-03-14T19:14:10;2.27;;;1.37;;
11604;SDS011;5858;43.076;25.626;2023-03-14T19:17:18;1.80;;;1.37;;
11604;SDS011;5858;43.076;25.626;2023-03-14T19:22:59;2.47;;;1.23;;
11604;SDS011;5858;43.076;25.626;2023-03-14T19:25:40;3.83;;;1.43;;
11604;SDS011;5858;43.076;25.626;2023-03-14T19:28:42;3.93;;;1.60;;
11604;SDS011;5858;43.076;25.626;2023-03-14T19:34:22;2.63;;;1.40;;
11604;SDS011;5858;43.076;25.626;2023-03-14T19:36:52;8.03;;;1.77;;
11604;SDS011;5858;43.076;25.626;2023-03-14T19:39:25;4.47;;;1.60;;
11604;SDS011;5858;43.076;25.626;2023-03-14T19:42:14;4.13;;;1.73;;
11604;SDS011;5858;43.076;25.626;2023-03-14T19:44:55;3.17;;;1.60;;
11604;SDS011;5858;43.076;25.626;2023-03-14T19:47:25;2.00;;;1.30;;
11604;SDS011;5858;43.076;25.626;2023-03-14T19:50:32;2.73;;;1.30;;
11604;SDS011;5858;43.076;25.626;2023-03-14T19:53:51;3.23;;;1.63;;
11604;SDS011;5858;43.076;25.626;2023-03-14T19:56:32;3.90;;;1.73;;
11604;SDS011;5858;43.076;25.626;2023-03-14T19:59:23;4.33;;;1.70;;
11604;SDS011;5858;43.076;25.626;2023-03-14T20:02:29;3.50;;;1.80;;
11604;SDS011;5858;43.076;25.626;2023-03-14T20:05:07;2.30;;;1.30;;
11604;SDS011;5858;43.076;25.626;2023-03-14T20:07:55;5.97;;;2.10;;
11604;SDS011;5858;43.076;25.626;2023-03-14T20:10:38;6.47;;;1.77;;
11604;SDS011;5858;43.076;25.626;2023-03-14T20:17:44;1.93;;;1.37;;
11604;SDS011;5858;43.076;25.626;2023-03-14T20:19:54;1.33;;;1.23;;
11604;SDS011;5858;43.076;25.626;2023-03-14T20:23:03;1.77;;;1.30;;
11604;SDS011;5858;43.076;25.626;2023-03-14T20:25:40;2.67;;;1.10;;
11604;SDS011;5858;43.076;25.626;2023-03-14T20:28:17;3.00;;;1.10;;
11604;SDS011;5858;43.076;25.626;2023-03-14T20:30:48;9.50;;;1.30;;
11604;SDS011;5858;43.076;25.626;2023-03-14T20:33:31;1.10;;;1.00;;
11604;SDS011;5858;43.076;25.626;2023-03-14T20:36:12;1.40;;;1.20;;
11604;SDS011;5858;43.076;25.626;2023-03-14T20:38:56;2.17;;;1.30;;
11604;SDS011;5858;43.076;25.626;2023-03-14T20:41:32;3.70;;;1.73;;
11604;SDS011;5858;43.076;25.626;2023-03-14T20:44:06;2.97;;;1.30;;
11604;SDS011;5858;43.076;25.626;2023-03-14T20:46:47;3.53;;;1.07;;
11604;SDS011;5858;43.076;25.626;2023-03-14T20:49:55;4.97;;;1.30;;
11604;SDS011;5858;43.076;25.626;2023-03-14T20:52:31;2.00;;;1.50;;
11604;SDS011;5858;43.076;25.626;2023-03-14T20:55:14;3.80;;;1.47;;
11604;SDS011;5858;43.076;25.626;2023-03-14T20:57:56;2.00;;;1.57;;
11604;SDS011;5858;43.076;25.626;2023-03-14T21:00:27;3.53;;;1.40;;
11604;SDS011;5858;43.076;25.626;2023-03-14T21:03:00;2.20;;;1.43;;
11604;SDS011;5858;43.076;25.626;2023-03-14T21:05:39;2.40;;;1.30;;
11604;SDS011;5858;43.076;25.626;2023-03-14T21:08:23;2.83;;;1.23;;
11604;SDS011;5858;43.076;25.626;2023-03-14T21:11:05;2.50;;;1.40;;
11604;SDS011;5858;43.076;25.626;2023-03-14T21:17:02;2.13;;;1.40;;
11604;SDS011;5858;43.076;25.626;2023-03-14T21:21:24;8.53;;;1.90;;
11604;SDS011;5858;43.076;25.626;2023-03-14T21:24:26;3.83;;;1.47;;
11604;SDS011;5858;43.076;25.626;2023-03-14T21:26:20;3.63;;;1.70;;
11604;SDS011;5858;43.076;25.626;2023-03-14T21:28:55;2.33;;;1.30;;
11604;SDS011;5858;43.076;25.626;2023-03-14T21:31:42;4.03;;;1.70;;
11604;SDS011;5858;43.076;25.626;2023-03-14T21:34:30;2.30;;;1.57;;
11604;SDS011;5858;43.076;25.626;2023-03-14T21:37:23;2.53;;;1.70;;
11604;SDS011;5858;43.076;25.626;2023-03-14T21:39:55;3.23;;;1.63;;
11604;SDS011;5858;43.076;25.626;2023-03-14T21:42:43;2.47;;;1.50;;
11604;SDS011;5858;43.076;25.626;2023-03-14T21:45:20;5.37;;;1.63;;
11604;SDS011;5858;43.076;25.626;2023-03-14T21:48:13;4.43;;;2.00;;
11604;SDS011;5858;43.076;25.626;2023-03-14T21:50:52;4.10;;;1.80;;
11604;SDS011;5858;43.076;25.626;2023-03-14T21:53:22;3.50;;;1.60;;
11604;SDS011;5858;43.076;25.626;2023-03-14T21:56:06;2.90;;;2.37;;
11604;SDS011;5858;43.076;25.626;2023-03-14T21:58:57;2.57;;;1.60;;
11604;SDS011;5858;43.076;25.626;2023-03-14T22:01:50;2.40;;;1.43;;
11604;SDS011;5858;43.076;25.626;2023-03-14T22:04:21;4.73;;;2.10;;
11604;SDS011;5858;43.076;25.626;2023-03-14T22:06:50;2.83;;;1.80;;
11604;SDS011;5858;43.076;25.626;2023-03-14T22:09:47;2.20;;;1.80;;
11604;SDS011;5858;43.076;25.626;2023-03-14T22:12:23;4.63;;;3.37;;
11604;SDS011;5858;43.076;25.626;2023-03-14T22:15:00;4.10;;;2.17;;
11604;SDS011;5858;43.076;25.626;2023-03-14T22:17:35;8.63;;;2.10;;
11604;SDS011;5858;43.076;25.626;2023-03-14T22:20:06;2.03;;;1.30;;
11604;SDS011;5858;43.076;25.626;2023-03-14T22:22:37;3.40;;;1.40;;
11604;SDS011;5858;43.076;25.626;2023-03-14T22:25:05;3.30;;;1.37;;
11604;SDS011;5858;43.076;25.626;2023-03-14T22:27:37;1.77;;;1.33;;
11604;SDS011;5858;43.076;25.626;2023-03-14T22:30:17;4.07;;;1.27;;
11604;SDS011;5858;43.076;25.626;2023-03-14T22:32:57;2.17;;;1.40;;
11604;SDS011;5858;43.076;25.626;2023-03-14T22:35:41;6.50;;;2.93;;
11604;SDS011;5858;43.076;25.626;2023-03-14T22:38:12;3.37;;;1.90;;
11604;SDS011;5858;43.076;25.626;2023-03-14T22:40:44;4.90;;;2.03;;
11604;SDS011;5858;43.076;25.626;2023-03-14T22:43:13;5.13;;;2.93;;
11604;SDS011;5858;43.076;25.626;2023-03-14T22:45:59;4.73;;;3.23;;
11604;SDS011;5858;43.076;25.626;2023-03-14T22:48:37;6.57;;;3.10;;
11604;SDS011;5858;43.076;25.626;2023-03-14T22:51:05;3.00;;;1.73;;